06:45
Airports
History
Links
Donate
Help keep this website running!
PayPal
Bitcoin
This page is community maintained. The information is intended for PC simulator navigation or reference.
Always use approved charts for navigation.
EDKZ
MEINERZHAGEN
MEINERZHAGEN (EDKZ)
Meinerzhagen, Nordrhein-Westfalen, Germany (58540)
(U)
Lat/Lng:51° 6' 1.2" N / 7° 36' 10.65" E
51.100332 / 7.602959
Elevation:1548'ft / 472mMSL
ID / ICAO:EDKZ
Runways:1
Longest:07-25
Asphalt 1,143m / 3,749ft
Nearby Weather06:20 GMT 2017-12-12
Nearby weather at EDDK, Koln Bonn located 25.6 nautical miles from EDKZ
Altimeter: 29.56
Visibility: 6.2 statute miles
Wind: 14 knots (from 260°)
Temp: 2°c / 36°f
Humidity: %

METAR: EDDK 120620Z 26014KT 9999 SCT015 BKN038 02/00 Q1001 NOSIG

(Powered by phpweather)
Airport Radio Frequencies
Tower: 129.87, 130.6
Nearby VORs <50NM
Nearby NDBs
Runway 07 / 25
Dimensions:1142.6 x 20.1m 3749' x 66'ft
Surface:Asphalt
Runway 07 [A]Runway 25 [B]
Heading:072°TH 252°TH
Lat:
Lng:
51° 5' 55.69"N
7° 35' 42.6"E
51° 6' 6.7"N
7° 36' 38.7"E
User Notes and Comments
51° 6' 1.2" N / 7° 36' 10.65" E
Distance To
Airport ID:
Nearby Airports
(C) Koln Bonn 25.6 NM
EDDK ( WX ) SW 231°
(C) Dortmund-Wickede 28.9 NM
EDLW ( WX ) N
(U) ARNSBERG MENDEN 29.4 NM
EDLA NNE 25°
(C) Bonn-Hangelar 29.8 NM
EDKB SW 219°
(U) Meschede Schueren 30.9 NM
EDKM ENE 63°
(C) Kamen 34.2 NM
ED03 N
(C) Siegerland 34.2 NM
EDGS SE 142°
VFR Chart
Flight Planning at SkyVector.com